createdAt,value
2023-01-26T00:01:21.420Z,7.05
2023-01-26T00:03:48.736Z,6.95
2023-01-26T00:06:20.753Z,7.03
2023-01-26T00:08:54.057Z,8.13
2023-01-26T00:11:29.772Z,8.05
2023-01-26T00:13:58.909Z,7.60
2023-01-26T00:16:28.038Z,7.25
2023-01-26T00:18:55.397Z,7.85
2023-01-26T00:21:23.826Z,7.15
2023-01-26T00:23:51.969Z,7.50
2023-01-26T00:26:24.657Z,7.70
2023-01-26T00:28:52.508Z,7.68
2023-01-26T00:31:22.609Z,7.13
2023-01-26T00:33:49.808Z,7.40
2023-01-26T00:36:22.520Z,6.47
2023-01-26T00:38:49.575Z,8.02
2023-01-26T00:41:51.649Z,6.80
2023-01-26T00:44:18.509Z,7.03
2023-01-26T00:46:45.415Z,7.03
2023-01-26T00:49:12.386Z,8.10
2023-01-26T00:51:39.198Z,7.63
2023-01-26T00:54:06.319Z,8.18
2023-01-26T00:56:36.333Z,9.68
2023-01-26T00:59:03.459Z,7.88
2023-01-26T01:01:30.322Z,7.28
2023-01-26T01:03:57.700Z,7.75
2023-01-26T01:06:25.015Z,8.15
2023-01-26T01:08:52.061Z,8.52
2023-01-26T01:11:19.444Z,6.43
2023-01-26T01:13:46.747Z,8.00
2023-01-26T01:16:15.975Z,7.38
2023-01-26T01:18:43.550Z,7.65
2023-01-26T01:21:22.514Z,7.40
2023-01-26T01:23:49.775Z,7.57
2023-01-26T01:26:17.162Z,8.40
2023-01-26T01:28:46.858Z,7.80
2023-01-26T01:31:16.269Z,7.15
2023-01-26T01:33:44.053Z,7.60
2023-01-26T01:36:14.255Z,8.75
2023-01-26T01:38:42.024Z,6.95
2023-01-26T01:41:09.964Z,7.50
2023-01-26T01:43:38.000Z,7.65
2023-01-26T01:46:25.428Z,7.97
2023-01-26T01:49:03.173Z,7.80
2023-01-26T01:51:39.353Z,7.90
2023-01-26T01:54:11.849Z,7.03
2023-01-26T01:56:42.280Z,7.35
2023-01-26T01:59:11.672Z,7.72
2023-01-26T02:01:38.642Z,8.30
2023-01-26T02:04:07.501Z,7.75
2023-01-26T02:06:53.321Z,8.57
2023-01-26T02:09:44.896Z,8.65
2023-01-26T02:12:14.805Z,7.93
2023-01-26T02:14:42.461Z,8.35
2023-01-26T02:17:10.314Z,7.82
2023-01-26T02:19:37.379Z,8.02
2023-01-26T02:22:13.295Z,7.85
2023-01-26T02:24:41.359Z,8.02
2023-01-26T02:27:09.060Z,7.63
2023-01-26T02:29:36.263Z,7.68
2023-01-26T02:32:03.162Z,8.98
2023-01-26T02:34:30.043Z,7.55
2023-01-26T02:36:59.202Z,9.00
2023-01-26T02:39:46.033Z,8.30
2023-01-26T02:42:32.100Z,5.95
2023-01-26T02:44:59.457Z,7.90
2023-01-26T02:47:26.323Z,8.48
2023-01-26T02:49:53.243Z,9.48
2023-01-26T02:52:25.831Z,8.13
2023-01-26T02:55:12.867Z,8.23
2023-01-26T02:57:40.631Z,9.40
2023-01-26T03:00:14.181Z,9.00
2023-01-26T03:02:42.312Z,7.07
2023-01-26T03:05:09.793Z,8.30
2023-01-26T03:07:37.007Z,8.55
2023-01-26T03:10:05.553Z,8.07
2023-01-26T03:12:33.012Z,7.38
2023-01-26T03:15:18.656Z,9.15
2023-01-26T03:17:45.906Z,8.38
2023-01-26T03:20:32.311Z,9.10
2023-01-26T03:23:17.877Z,7.78
2023-01-26T03:26:03.338Z,8.07
2023-01-26T03:28:30.496Z,8.18
2023-01-26T03:30:58.723Z,8.35
2023-01-26T03:33:25.779Z,8.73
2023-01-26T03:35:54.509Z,8.80
2023-01-26T03:38:21.541Z,8.02
2023-01-26T03:41:07.363Z,8.25
2023-01-26T03:43:53.100Z,7.72
2023-01-26T03:46:38.745Z,8.25
2023-01-26T03:49:23.972Z,8.40
2023-01-26T03:52:09.477Z,8.05
2023-01-26T03:54:54.983Z,7.07
2023-01-26T03:57:21.944Z,8.52
2023-01-26T03:59:48.804Z,8.38
2023-01-26T04:02:34.322Z,9.05
2023-01-26T04:05:19.887Z,8.23
2023-01-26T04:08:05.504Z,8.25
2023-01-26T04:10:32.364Z,6.55
2023-01-26T04:13:17.991Z,8.77
2023-01-26T04:16:06.300Z,8.00
2023-01-26T04:18:52.578Z,8.68
2023-01-26T04:21:34.449Z,7.55
2023-01-26T04:24:03.101Z,8.70
2023-01-26T04:26:36.994Z,8.63
2023-01-26T04:29:09.883Z,8.25
2023-01-26T04:31:37.529Z,7.65
2023-01-26T04:34:05.707Z,8.23
2023-01-26T04:36:33.193Z,8.40
2023-01-26T04:39:00.308Z,8.95
2023-01-26T04:41:32.451Z,7.80
2023-01-26T04:43:59.367Z,8.05
2023-01-26T04:46:26.601Z,8.00
2023-01-26T04:48:53.520Z,7.40
2023-01-26T04:51:22.570Z,7.20
2023-01-26T04:53:50.745Z,8.75
2023-01-26T04:56:32.790Z,7.78
2023-01-26T04:59:02.524Z,7.03
2023-01-26T05:01:29.917Z,7.88
2023-01-26T05:04:00.675Z,7.57
2023-01-26T05:06:27.604Z,8.25
2023-01-26T05:08:54.661Z,7.40
2023-01-26T05:11:21.929Z,7.97
2023-01-26T05:13:49.412Z,7.63
2023-01-26T05:16:17.333Z,7.78
2023-01-26T05:18:48.750Z,8.10
2023-01-26T05:21:16.298Z,7.63
2023-01-26T05:23:46.639Z,8.20
2023-01-26T05:26:15.735Z,8.00
2023-01-26T05:28:45.699Z,7.50
2023-01-26T05:31:12.596Z,8.43
2023-01-26T05:33:39.453Z,8.57
2023-01-26T05:36:08.290Z,9.00
2023-01-26T05:38:35.493Z,8.48
2023-01-26T05:41:02.845Z,7.60
2023-01-26T05:43:30.772Z,7.85
2023-01-26T05:45:57.855Z,8.63
2023-01-26T05:48:24.712Z,8.52
2023-01-26T05:50:51.597Z,8.65
2023-01-26T05:53:19.767Z,7.82
2023-01-26T05:55:46.667Z,7.70
2023-01-26T05:58:13.865Z,7.05
2023-01-26T06:00:40.838Z,7.32
2023-01-26T06:03:07.683Z,9.10
2023-01-26T06:05:34.733Z,8.45
2023-01-26T06:08:01.931Z,8.57
2023-01-26T06:10:28.844Z,8.50
2023-01-26T06:12:55.716Z,7.72
2023-01-26T06:15:23.857Z,7.65
2023-01-26T06:17:51.907Z,8.18
2023-01-26T06:20:18.779Z,7.57
2023-01-26T06:22:45.879Z,8.02
2023-01-26T06:25:12.705Z,8.27
2023-01-26T06:27:42.387Z,8.20
2023-01-26T06:30:10.935Z,7.45
2023-01-26T06:32:37.920Z,8.07
2023-01-26T06:35:07.170Z,8.13
2023-01-26T06:37:35.002Z,7.80
2023-01-26T06:40:04.876Z,7.57
2023-01-26T06:42:31.796Z,6.60
2023-01-26T06:44:59.029Z,8.45
2023-01-26T06:47:26.103Z,8.43
2023-01-26T06:49:53.278Z,7.93
2023-01-26T06:52:30.789Z,7.93
2023-01-26T06:55:00.518Z,8.38
2023-01-26T06:57:27.757Z,8.10
2023-01-26T06:59:56.387Z,8.35
2023-01-26T07:02:23.759Z,7.82
2023-01-26T07:04:51.356Z,8.02
2023-01-26T07:07:18.688Z,9.20
2023-01-26T07:09:48.358Z,7.43
2023-01-26T07:12:15.275Z,7.65
2023-01-26T07:14:42.641Z,7.85
2023-01-26T07:17:09.481Z,8.98
2023-01-26T07:19:37.359Z,8.43
2023-01-26T07:22:04.805Z,9.23
2023-01-26T07:24:31.702Z,9.82
2023-01-26T07:26:59.769Z,9.13
2023-01-26T07:29:26.701Z,8.60
2023-01-26T07:31:53.864Z,10.25
2023-01-26T07:34:21.320Z,8.52
2023-01-26T07:36:52.317Z,9.25
2023-01-26T07:39:19.206Z,9.80
2023-01-26T07:41:46.122Z,8.68
2023-01-26T07:44:13.159Z,10.25
2023-01-26T07:46:42.232Z,9.25
2023-01-26T07:49:11.869Z,9.10
2023-01-26T07:51:40.068Z,8.70
2023-01-26T07:54:08.039Z,7.50
2023-01-26T07:56:34.913Z,9.35
2023-01-26T07:59:03.825Z,7.88
2023-01-26T08:01:31.224Z,7.55
2023-01-26T08:03:58.535Z,9.30
2023-01-26T08:06:25.495Z,8.55
2023-01-26T08:08:54.329Z,7.88
2023-01-26T08:11:23.502Z,7.97
2023-01-26T08:13:50.625Z,8.77
2023-01-26T08:16:18.522Z,8.07
2023-01-26T08:18:47.510Z,8.48
2023-01-26T08:21:16.671Z,7.65
2023-01-26T08:23:43.802Z,8.57
2023-01-26T08:26:13.415Z,8.23
2023-01-26T08:28:41.780Z,9.18
2023-01-26T08:31:11.616Z,8.05
2023-01-26T08:33:40.679Z,7.90
2023-01-26T08:36:10.904Z,7.85
2023-01-26T08:38:40.292Z,8.82
2023-01-26T09:45:54.377Z,5.78
2023-01-26T09:48:45.493Z,6.18
2023-01-26T09:51:23.302Z,6.05
2023-01-26T09:53:59.867Z,5.55
2023-01-26T09:56:30.344Z,5.95
2023-01-26T09:59:24.320Z,5.55
2023-01-26T10:02:16.057Z,5.88
2023-01-26T10:04:47.151Z,5.13
2023-01-26T10:07:17.319Z,6.32
2023-01-26T10:09:48.818Z,5.32
2023-01-26T10:12:21.904Z,6.18
2023-01-26T10:15:02.929Z,4.97
2023-01-26T10:17:38.538Z,4.60
2023-01-26T10:20:27.601Z,4.55
2023-01-26T10:22:58.743Z,5.30
2023-01-26T10:25:36.370Z,4.60
2023-01-26T10:28:16.827Z,4.57
2023-01-26T10:30:45.875Z,5.03
2023-01-26T10:33:22.941Z,4.85
2023-01-26T10:35:49.985Z,4.40
2023-01-26T10:38:40.487Z,4.68
2023-01-26T10:41:27.754Z,4.25
2023-01-26T10:44:12.473Z,5.88
2023-01-26T10:46:41.692Z,5.38
2023-01-26T10:49:08.625Z,5.53
2023-01-26T10:51:45.252Z,5.68
2023-01-26T10:54:32.082Z,5.82
2023-01-26T10:57:17.327Z,5.90
2023-01-26T11:00:00.507Z,5.68
2023-01-26T11:02:31.774Z,5.45
2023-01-26T11:05:24.963Z,5.43
2023-01-26T11:08:03.847Z,4.70
2023-01-26T11:10:34.221Z,4.90
2023-01-26T11:13:09.700Z,5.82
2023-01-26T11:15:39.762Z,4.43
2023-01-26T11:18:34.622Z,4.35
2023-01-26T11:21:22.651Z,5.30
2023-01-26T11:24:18.014Z,4.75
2023-01-26T11:29:56.848Z,5.20
2023-01-26T11:32:56.145Z,4.65
2023-01-26T11:35:37.746Z,4.57
2023-01-26T11:38:36.590Z,4.97
2023-01-26T11:41:38.312Z,5.75
2023-01-26T11:44:14.220Z,4.78
2023-01-26T11:46:52.583Z,5.55
2023-01-26T11:49:34.467Z,4.53
2023-01-26T11:52:02.645Z,4.90
2023-01-26T11:54:34.509Z,5.13
2023-01-26T11:57:04.661Z,5.30
2023-01-26T11:59:38.524Z,5.32
2023-01-26T12:02:33.203Z,5.38
2023-01-26T12:05:14.418Z,4.28
2023-01-26T12:07:55.982Z,4.57
2023-01-26T12:10:39.794Z,4.15
2023-01-26T12:13:18.841Z,4.82
2023-01-26T12:15:55.187Z,4.65
2023-01-26T12:18:55.795Z,3.63
2023-01-26T12:21:32.163Z,4.53
2023-01-26T12:24:02.729Z,3.75
2023-01-26T12:26:35.734Z,4.07
2023-01-26T12:29:13.542Z,4.70
2023-01-26T12:32:07.034Z,4.10
2023-01-26T12:34:34.233Z,4.25
2023-01-26T12:37:22.972Z,4.70
2023-01-26T12:40:19.002Z,4.70
2023-01-26T12:43:00.348Z,4.60
2023-01-26T12:45:39.781Z,5.13
2023-01-26T12:48:15.857Z,4.28
2023-01-26T12:50:58.688Z,4.60
2023-01-26T12:53:34.819Z,4.82
2023-01-26T12:56:01.917Z,5.47
2023-01-26T12:58:35.513Z,4.53
2023-01-26T13:01:09.893Z,5.13
2023-01-26T13:03:43.977Z,5.40
2023-01-26T13:06:21.170Z,5.93
2023-01-26T13:09:16.131Z,4.25
2023-01-26T13:11:57.265Z,4.55
2023-01-26T13:14:29.870Z,4.95
2023-01-26T13:16:58.010Z,5.13
2023-01-26T13:19:51.873Z,4.53
2023-01-26T13:22:26.016Z,4.78
2023-01-26T13:24:55.995Z,5.15
2023-01-26T13:27:33.931Z,4.57
2023-01-26T13:30:01.731Z,4.88
2023-01-26T13:32:28.640Z,4.88
2023-01-26T13:35:03.498Z,3.75
2023-01-26T13:37:38.881Z,4.80
2023-01-26T13:40:31.452Z,5.13
2023-01-26T13:43:25.276Z,5.00
2023-01-26T13:46:18.153Z,5.57
2023-01-26T13:48:56.112Z,4.47
2023-01-26T13:51:25.195Z,4.68
2023-01-26T13:54:02.523Z,4.25
2023-01-26T13:56:35.483Z,4.30
2023-01-26T13:59:06.836Z,4.15
2023-01-26T14:01:34.182Z,4.72
2023-01-26T14:04:06.838Z,3.75
2023-01-26T14:06:37.111Z,4.65
2023-01-26T14:09:06.623Z,4.47
2023-01-26T14:11:34.674Z,4.95
2023-01-26T14:19:09.526Z,4.38
2023-01-26T14:22:15.394Z,5.25
2023-01-26T14:24:49.656Z,5.63
2023-01-26T14:27:29.277Z,5.38
2023-01-26T14:29:56.353Z,4.68
2023-01-26T14:32:29.742Z,5.10
2023-01-26T14:34:59.766Z,5.03
2023-01-26T14:37:28.185Z,4.55
2023-01-26T14:40:30.761Z,4.63
2023-01-26T14:42:58.424Z,3.78
2023-01-26T14:45:32.821Z,4.80
2023-01-26T14:48:07.097Z,4.30
2023-01-26T14:50:46.871Z,4.80
2023-01-26T14:53:21.089Z,5.00
2023-01-26T14:55:48.880Z,5.65
2023-01-26T14:58:33.122Z,4.85
2023-01-26T15:01:01.817Z,4.90
2023-01-26T15:03:37.523Z,4.95
2023-01-26T15:06:13.572Z,5.03
2023-01-26T15:08:42.395Z,5.72
2023-01-26T15:11:29.140Z,5.22
2023-01-26T15:13:56.426Z,4.97
2023-01-26T15:16:25.483Z,6.03
2023-01-26T15:19:06.130Z,4.47
2023-01-26T15:21:39.579Z,4.82
2023-01-26T15:24:12.572Z,5.03
2023-01-26T15:26:39.763Z,6.05
2023-01-26T15:29:25.113Z,5.80
2023-01-26T15:31:57.030Z,5.03
2023-01-26T15:34:42.111Z,5.47
2023-01-26T15:37:32.134Z,5.53
2023-01-26T15:39:59.243Z,4.97
2023-01-26T15:42:29.196Z,4.97
2023-01-26T15:44:59.155Z,4.40
2023-01-26T15:47:26.032Z,4.63
2023-01-26T15:49:53.116Z,6.18
2023-01-26T15:52:24.933Z,5.10
2023-01-26T15:54:53.981Z,5.10
2023-01-26T15:57:21.193Z,5.15
2023-01-26T15:59:48.508Z,5.90
2023-01-26T16:02:20.263Z,4.32
2023-01-26T16:04:47.958Z,5.15
2023-01-26T16:07:16.793Z,5.35
2023-01-26T16:09:44.365Z,4.82
2023-01-26T16:12:32.725Z,5.68
2023-01-26T16:15:00.319Z,4.45
2023-01-26T16:17:33.095Z,4.53
2023-01-26T16:20:01.040Z,4.53
2023-01-26T16:22:27.904Z,4.75
2023-01-26T16:24:55.208Z,4.88
2023-01-26T16:27:22.706Z,5.20
2023-01-26T16:29:49.870Z,4.90
2023-01-26T16:32:29.363Z,4.63
2023-01-26T16:34:56.813Z,4.50
2023-01-26T16:37:31.384Z,4.88
2023-01-26T16:39:59.107Z,4.78
2023-01-26T16:42:26.381Z,4.57
2023-01-26T16:44:58.598Z,4.53
2023-01-26T16:47:25.550Z,4.63
2023-01-26T16:49:52.461Z,4.50
2023-01-26T16:52:19.330Z,4.93
2023-01-26T16:54:48.611Z,5.75
2023-01-26T16:57:22.955Z,5.18
2023-01-26T16:59:50.147Z,5.82
2023-01-26T17:02:25.693Z,4.75
2023-01-26T17:04:53.057Z,4.85
2023-01-26T17:07:19.964Z,5.22
2023-01-26T17:09:47.120Z,5.13
2023-01-26T17:12:14.242Z,5.40
2023-01-26T17:14:43.746Z,4.13
2023-01-26T17:17:16.782Z,4.93
2023-01-26T17:19:43.687Z,4.30
2023-01-26T17:22:14.981Z,4.82
2023-01-26T17:24:46.225Z,5.32
2023-01-26T17:27:16.270Z,4.88
2023-01-26T17:29:43.135Z,4.78
2023-01-26T17:32:10.080Z,3.88
2023-01-26T17:34:37.007Z,4.75
2023-01-26T17:37:04.474Z,4.35
2023-01-26T17:39:31.387Z,4.55
2023-01-26T17:41:58.807Z,3.60
2023-01-26T17:47:09.783Z,3.35
2023-01-26T17:49:38.234Z,5.10
2023-01-26T17:52:07.447Z,4.80
2023-01-26T17:54:35.033Z,5.68
2023-01-26T17:59:30.020Z,4.47
2023-01-26T18:01:56.977Z,4.32
2023-01-26T18:04:23.866Z,5.32
2023-01-26T18:06:51.038Z,3.78
2023-01-26T18:09:20.963Z,4.72
2023-01-26T18:11:51.507Z,4.28
2023-01-26T18:14:18.378Z,5.13
2023-01-26T18:16:45.262Z,4.65
2023-01-26T18:19:12.378Z,4.30
2023-01-26T18:21:39.367Z,4.45
2023-01-26T18:24:07.098Z,4.68
2023-01-26T18:26:37.163Z,4.25
2023-01-26T18:29:05.914Z,5.22
2023-01-26T18:31:38.109Z,5.70
2023-01-26T18:34:04.974Z,4.38
2023-01-26T18:36:32.846Z,4.55
2023-01-26T18:39:11.808Z,4.82
2023-01-26T18:41:41.011Z,4.53
2023-01-26T18:44:08.512Z,5.72
2023-01-26T18:46:45.464Z,4.55
2023-01-26T18:49:12.457Z,4.53
2023-01-26T18:51:39.368Z,4.82
2023-01-26T18:54:07.426Z,4.40
2023-01-26T18:56:35.075Z,4.10
2023-01-26T18:59:01.991Z,4.75
2023-01-26T19:01:29.337Z,4.13
2023-01-26T19:03:58.069Z,4.90
2023-01-26T19:06:26.989Z,4.80
2023-01-26T19:08:58.923Z,4.88
2023-01-26T19:14:12.143Z,4.43
2023-01-26T19:16:40.548Z,5.05
2023-01-26T19:19:07.677Z,5.15
2023-01-26T19:21:34.500Z,4.57
2023-01-26T19:24:17.197Z,3.92
2023-01-26T19:29:14.212Z,4.32
2023-01-26T19:31:55.714Z,4.47
2023-01-26T19:34:23.507Z,4.32
2023-01-26T19:36:53.310Z,4.20
2023-01-26T19:39:22.204Z,4.13
2023-01-26T19:41:50.489Z,4.85
2023-01-26T19:44:17.432Z,4.57
2023-01-26T19:46:44.357Z,4.43
2023-01-26T19:49:13.078Z,5.65
2023-01-26T19:51:39.995Z,4.53
2023-01-26T19:54:06.888Z,5.03
2023-01-26T19:56:42.922Z,5.25
2023-01-26T19:59:13.033Z,4.80
2023-01-26T20:01:41.527Z,4.47
2023-01-26T20:04:13.103Z,4.80
2023-01-26T20:06:49.612Z,4.60
2023-01-26T20:09:16.470Z,4.68
2023-01-26T20:11:43.783Z,4.97
2023-01-26T20:14:11.795Z,5.45
2023-01-26T20:16:40.236Z,5.32
2023-01-26T20:19:07.421Z,5.10
2023-01-26T20:21:35.612Z,4.85
2023-01-26T20:24:06.050Z,5.18
2023-01-26T20:26:44.584Z,5.97
2023-01-26T20:29:19.834Z,5.47
2023-01-26T20:31:47.646Z,5.90
2023-01-26T20:34:15.765Z,5.82
2023-01-26T20:36:45.856Z,4.57
2023-01-26T20:39:16.353Z,5.22
2023-01-26T20:41:43.546Z,6.32
2023-01-26T20:44:13.684Z,5.43
2023-01-26T20:46:44.597Z,5.80
2023-01-26T20:49:17.349Z,5.70
2023-01-26T20:51:46.407Z,5.55
2023-01-26T20:54:16.647Z,5.03
2023-01-26T20:56:49.048Z,5.43
2023-01-26T20:59:36.010Z,5.72
2023-01-26T21:02:03.386Z,5.28
2023-01-26T21:04:40.356Z,4.47
2023-01-26T21:07:10.778Z,7.03
2023-01-26T21:09:42.718Z,5.45
2023-01-26T21:12:09.761Z,6.00
2023-01-26T21:14:36.699Z,6.28
2023-01-26T21:17:04.070Z,6.10
2023-01-26T21:19:31.084Z,5.80
2023-01-26T21:21:59.558Z,6.22
2023-01-26T21:24:27.645Z,6.75
2023-01-26T21:26:54.453Z,5.32
2023-01-26T21:29:24.701Z,5.60
2023-01-26T21:31:52.661Z,5.70
2023-01-26T21:34:20.007Z,6.10
2023-01-26T21:36:48.352Z,5.82
2023-01-26T21:39:15.436Z,5.78
2023-01-26T21:41:57.634Z,5.90
2023-01-26T21:44:56.718Z,5.28
2023-01-26T21:47:26.052Z,5.00
2023-01-26T21:49:54.714Z,6.05
2023-01-26T21:52:53.258Z,5.63
2023-01-26T21:55:20.073Z,6.25
2023-01-26T21:58:05.809Z,5.72
2023-01-26T22:00:34.850Z,6.40
2023-01-26T22:03:01.854Z,6.57
2023-01-26T22:05:32.640Z,6.78
2023-01-26T22:10:29.104Z,6.30
2023-01-26T22:12:55.939Z,6.18
2023-01-26T22:15:30.931Z,5.97
2023-01-26T22:18:00.653Z,6.68
2023-01-26T22:20:28.121Z,6.10
2023-01-26T22:22:55.039Z,6.72
2023-01-26T22:25:21.900Z,6.95
2023-01-26T22:27:50.037Z,6.22
2023-01-26T22:30:30.292Z,4.95
2023-01-26T22:33:11.165Z,6.57
2023-01-26T22:35:41.186Z,4.88
2023-01-26T22:38:08.022Z,5.88
2023-01-26T22:40:49.125Z,6.85
2023-01-26T22:46:55.720Z,5.80
2023-01-26T22:49:22.687Z,6.00
2023-01-26T22:51:50.074Z,5.93
2023-01-26T22:54:17.254Z,6.07
2023-01-26T22:56:47.601Z,6.57
2023-01-26T22:59:14.814Z,6.15
2023-01-26T23:01:42.109Z,5.32
2023-01-26T23:04:09.241Z,6.57
2023-01-26T23:06:41.875Z,6.18
2023-01-26T23:09:08.868Z,5.80
2023-01-26T23:11:35.884Z,6.80
2023-01-26T23:14:11.754Z,5.68
2023-01-26T23:16:39.007Z,6.50
2023-01-26T23:19:08.805Z,5.88
2023-01-26T23:21:48.915Z,6.65
2023-01-26T23:24:15.827Z,6.88
2023-01-26T23:26:43.541Z,5.93
2023-01-26T23:29:13.296Z,6.22
2023-01-26T23:31:52.288Z,6.07
2023-01-26T23:34:19.465Z,5.85
2023-01-26T23:36:49.081Z,5.25
2023-01-26T23:39:17.447Z,5.93
2023-01-26T23:41:47.058Z,6.75
2023-01-26T23:44:15.416Z,5.60
2023-01-26T23:46:44.809Z,4.93
2023-01-26T23:49:11.787Z,6.05
2023-01-26T23:51:38.961Z,6.68
2023-01-26T23:54:12.597Z,6.25
2023-01-26T23:56:40.630Z,6.20
2023-01-26T23:59:11.112Z,5.60
